createdAt,value
2023-04-04T00:00:32.669Z,30.17
2023-04-04T00:03:00.717Z,30.52
2023-04-04T00:05:28.710Z,30.15
2023-04-04T00:07:56.630Z,30.46
2023-04-04T00:10:24.560Z,30.68
2023-04-04T00:12:53.937Z,30.70
2023-04-04T00:15:22.135Z,30.42
2023-04-04T00:17:50.508Z,30.67
2023-04-04T00:20:18.489Z,30.50
2023-04-04T00:22:46.385Z,30.51
2023-04-04T00:25:14.510Z,30.32
2023-04-04T00:27:42.578Z,30.47
2023-04-04T00:30:13.380Z,30.83
2023-04-04T00:32:42.876Z,30.62
2023-04-04T00:35:10.970Z,30.93
2023-04-04T00:37:39.056Z,30.97
2023-04-04T00:40:08.529Z,30.64
2023-04-04T00:42:37.343Z,30.63
2023-04-04T00:45:06.141Z,30.87
2023-04-04T00:47:36.180Z,31.05
2023-04-04T00:50:04.188Z,30.93
2023-04-04T00:52:32.293Z,30.57
2023-04-04T00:55:01.371Z,30.76
2023-04-04T00:57:29.949Z,30.82
2023-04-04T00:59:58.326Z,30.86
2023-04-04T01:02:26.910Z,30.83
2023-04-04T01:04:57.183Z,30.69
2023-04-04T01:07:25.384Z,30.80
2023-04-04T01:09:53.570Z,30.84
2023-04-04T01:12:21.436Z,31.18
2023-04-04T01:14:49.409Z,31.11
2023-04-04T01:17:18.108Z,31.20
2023-04-04T01:19:50.654Z,31.06
2023-04-04T01:22:23.930Z,31.28
2023-04-04T01:24:53.116Z,31.14
2023-04-04T01:27:23.509Z,31.20
2023-04-04T01:29:57.099Z,31.37
2023-04-04T01:32:30.514Z,31.42
2023-04-04T01:35:03.795Z,31.23
2023-04-04T01:37:36.875Z,31.78
2023-04-04T01:40:12.756Z,31.24
2023-04-04T01:42:44.852Z,31.44
2023-04-04T01:45:12.971Z,31.19
2023-04-04T01:47:41.724Z,31.33
2023-04-04T01:50:14.092Z,31.64
2023-04-04T01:52:42.185Z,31.42
2023-04-04T01:55:10.917Z,31.48
2023-04-04T01:57:39.614Z,31.49
2023-04-04T02:00:10.967Z,31.61
2023-04-04T02:02:45.137Z,31.47
2023-04-04T02:05:13.569Z,31.53
2023-04-04T02:07:41.921Z,31.29
2023-04-04T02:10:22.387Z,31.50
2023-04-04T02:12:50.664Z,31.49
2023-04-04T02:15:20.076Z,31.63
2023-04-04T02:17:49.483Z,31.53
2023-04-04T02:20:19.523Z,31.58
2023-04-04T02:22:54.586Z,31.82
2023-04-04T02:25:24.182Z,31.44
2023-04-04T02:27:52.221Z,31.94
2023-04-04T02:30:21.388Z,31.65
2023-04-04T02:32:51.116Z,31.65
2023-04-04T02:35:21.295Z,31.66
2023-04-04T02:37:49.117Z,32.00
2023-04-04T02:40:36.025Z,31.83
2023-04-04T02:43:04.084Z,31.88
2023-04-04T02:45:33.629Z,31.94
2023-04-04T02:48:13.291Z,31.53
2023-04-04T02:50:47.343Z,32.21
2023-04-04T02:53:16.785Z,31.64
2023-04-04T02:55:46.243Z,31.91
2023-04-04T02:58:14.522Z,31.70
2023-04-04T03:00:43.820Z,31.79
2023-04-04T03:03:12.391Z,31.71
2023-04-04T03:05:45.613Z,31.65
2023-04-04T03:08:13.490Z,31.72
2023-04-04T03:10:41.654Z,31.75
2023-04-04T03:13:09.752Z,32.06
2023-04-04T03:15:38.065Z,32.01
2023-04-04T03:18:07.623Z,32.28
2023-04-04T03:20:36.077Z,31.91
2023-04-04T03:23:03.953Z,32.17
2023-04-04T03:25:31.702Z,31.98
2023-04-04T03:27:59.655Z,31.98
2023-04-04T03:30:28.288Z,32.09
2023-04-04T03:32:56.744Z,32.27
2023-04-04T03:35:26.002Z,32.20
2023-04-04T03:37:56.403Z,32.44
2023-04-04T03:40:24.298Z,32.24
2023-04-04T03:42:52.598Z,32.20
2023-04-04T03:45:21.825Z,32.23
2023-04-04T03:47:49.872Z,32.28
2023-04-04T03:50:18.870Z,32.31
2023-04-04T03:52:53.770Z,32.44
2023-04-04T03:55:21.688Z,32.30
2023-04-04T03:57:49.492Z,32.58
2023-04-04T04:00:18.384Z,32.38
2023-04-04T04:02:46.959Z,32.43
2023-04-04T04:05:14.953Z,32.36
2023-04-04T04:07:45.383Z,32.60
2023-04-04T04:10:15.157Z,32.94
2023-04-04T04:12:42.994Z,32.62
2023-04-04T04:15:11.832Z,32.55
2023-04-04T04:17:42.127Z,32.62
2023-04-04T04:20:12.450Z,32.64
2023-04-04T04:22:51.445Z,32.97
2023-04-04T04:25:22.884Z,32.49
2023-04-04T04:28:04.013Z,33.08
2023-04-04T04:30:32.711Z,32.64
2023-04-04T04:33:00.812Z,32.72
2023-04-04T04:35:38.716Z,32.85
2023-04-04T04:38:07.191Z,32.71
2023-04-04T04:40:36.700Z,32.72
2023-04-04T04:43:13.932Z,32.60
2023-04-04T04:45:43.020Z,32.62
2023-04-04T04:48:13.056Z,32.96
2023-04-04T04:50:49.030Z,32.91
2023-04-04T04:53:25.791Z,32.94
2023-04-04T04:55:55.196Z,32.91
2023-04-04T04:58:25.012Z,32.90
2023-04-04T05:00:58.078Z,33.17
2023-04-04T05:03:33.272Z,33.07
2023-04-04T05:06:01.695Z,33.01
2023-04-04T05:08:30.252Z,32.88
2023-04-04T05:11:14.412Z,33.66
2023-04-04T05:13:42.936Z,32.93
2023-04-04T05:16:10.925Z,32.90
2023-04-04T05:18:39.031Z,33.13
2023-04-04T05:21:11.111Z,33.16
2023-04-04T05:23:39.690Z,33.09
2023-04-04T05:26:08.779Z,33.02
2023-04-04T05:28:41.572Z,33.24
2023-04-04T05:31:09.435Z,33.25
2023-04-04T05:33:38.890Z,33.43
2023-04-04T05:36:28.004Z,33.46
2023-04-04T05:39:01.307Z,33.42
2023-04-04T05:41:33.322Z,33.48
2023-04-04T05:44:10.733Z,33.45
2023-04-04T05:46:39.138Z,33.68
2023-04-04T05:49:08.144Z,33.68
2023-04-04T05:51:40.582Z,33.77
2023-04-04T05:54:12.104Z,33.36
2023-04-04T05:56:40.774Z,33.74
2023-04-04T05:59:17.803Z,33.63
2023-04-04T06:01:57.566Z,33.66
2023-04-04T06:04:25.528Z,33.75
2023-04-04T06:06:56.113Z,33.86
2023-04-04T06:09:24.185Z,34.05
2023-04-04T06:11:52.532Z,34.14
2023-04-04T06:14:21.917Z,34.22
2023-04-04T06:16:50.114Z,34.49
2023-04-04T06:19:18.469Z,34.84
2023-04-04T06:21:47.508Z,34.56
2023-04-04T06:24:16.256Z,34.16
2023-04-04T06:26:44.888Z,34.58
2023-04-04T06:29:13.618Z,34.51
2023-04-04T06:31:44.648Z,34.22
2023-04-04T06:34:22.652Z,34.15
2023-04-04T06:36:58.958Z,34.06
2023-04-04T06:39:31.489Z,34.57
2023-04-04T06:42:02.245Z,34.35
2023-04-04T06:44:32.634Z,33.98
2023-04-04T06:47:02.019Z,33.91
2023-04-04T06:49:30.055Z,34.35
2023-04-04T06:51:58.913Z,33.89
2023-04-04T06:54:27.129Z,33.82
2023-04-04T06:56:55.337Z,33.73
2023-04-04T06:59:23.221Z,34.06
2023-04-04T07:01:51.190Z,33.89
2023-04-04T07:04:21.350Z,33.58
2023-04-04T07:06:49.294Z,33.90
2023-04-04T07:09:28.122Z,33.73
2023-04-04T07:11:57.502Z,34.08
2023-04-04T07:14:26.074Z,33.46
2023-04-04T07:16:55.308Z,33.83
2023-04-04T07:19:28.633Z,33.87
2023-04-04T07:21:56.872Z,33.72
2023-04-04T07:24:24.881Z,33.36
2023-04-04T07:26:52.834Z,33.32
2023-04-04T07:29:21.565Z,32.75
2023-04-04T07:31:49.577Z,31.71
2023-04-04T07:34:17.586Z,31.82
2023-04-04T07:36:46.829Z,30.94
2023-04-04T07:39:14.661Z,30.70
2023-04-04T07:41:42.572Z,30.23
2023-04-04T07:44:10.616Z,29.59
2023-04-04T07:46:42.741Z,28.85
2023-04-04T07:49:13.118Z,28.45
2023-04-04T07:51:41.579Z,27.96
2023-04-04T07:54:10.743Z,27.67
2023-04-04T07:56:38.615Z,27.75
2023-04-04T07:59:06.709Z,26.97
2023-04-04T08:01:34.501Z,27.07
2023-04-04T08:04:03.204Z,26.29
2023-04-04T08:06:31.169Z,26.65
2023-04-04T08:08:58.961Z,25.77
2023-04-04T08:11:28.600Z,26.08
2023-04-04T08:13:56.503Z,25.40
2023-04-04T08:16:24.497Z,24.89
2023-04-04T08:18:52.666Z,25.41
2023-04-04T08:21:20.562Z,25.24
2023-04-04T08:23:48.587Z,25.38
2023-04-04T08:26:16.753Z,25.12
2023-04-04T08:28:46.422Z,25.24
2023-04-04T08:31:14.546Z,25.99
2023-04-04T08:33:47.299Z,25.42
2023-04-04T08:36:16.125Z,25.75
2023-04-04T08:38:44.671Z,25.27
2023-04-04T08:41:17.006Z,25.48
2023-04-04T08:43:54.501Z,25.46
2023-04-04T08:46:24.210Z,26.31
2023-04-04T08:48:54.353Z,26.15
2023-04-04T08:51:23.795Z,26.05
2023-04-04T08:53:51.990Z,25.92
2023-04-04T08:56:19.769Z,25.96
2023-04-04T08:58:49.206Z,25.91
2023-04-04T09:01:17.412Z,25.75
2023-04-04T09:03:46.088Z,25.30
2023-04-04T09:06:14.741Z,25.10
2023-04-04T09:08:43.832Z,24.58
2023-04-04T09:11:13.043Z,24.51
2023-04-04T09:13:42.612Z,24.74
2023-04-04T09:16:11.889Z,24.09
2023-04-04T09:18:39.706Z,24.21
2023-04-04T09:21:11.357Z,23.46
2023-04-04T09:23:39.716Z,24.67
2023-04-04T09:26:07.757Z,24.65
2023-04-04T09:28:36.778Z,24.38
2023-04-04T09:31:08.301Z,24.57
2023-04-04T09:33:39.652Z,23.68
2023-04-04T09:36:10.295Z,24.29
2023-04-04T09:38:40.592Z,24.26
2023-04-04T09:41:09.731Z,24.88
2023-04-04T09:43:38.540Z,24.98
2023-04-04T09:46:07.875Z,24.74
2023-04-04T09:48:37.433Z,24.25
2023-04-04T09:51:06.680Z,25.09
2023-04-04T09:53:36.900Z,25.24
2023-04-04T09:56:05.056Z,25.32
2023-04-04T09:58:36.367Z,25.31
2023-04-04T10:01:06.685Z,25.75
2023-04-04T10:03:34.587Z,25.68
2023-04-04T10:06:07.168Z,24.75
2023-04-04T10:08:36.009Z,25.52
2023-04-04T10:11:11.984Z,25.06
2023-04-04T10:13:43.782Z,24.66
2023-04-04T10:16:12.266Z,23.96
2023-04-04T10:18:40.451Z,23.33
2023-04-04T10:23:43.256Z,23.27
2023-04-04T10:26:12.841Z,23.69
2023-04-04T10:28:42.413Z,24.25
2023-04-04T10:31:18.608Z,22.78
2023-04-04T10:33:53.424Z,23.59
2023-04-04T10:36:26.289Z,23.28
2023-04-04T10:38:59.562Z,23.40
2023-04-04T10:41:31.545Z,24.22
2023-04-04T10:44:06.444Z,23.86
2023-04-04T10:46:38.257Z,23.70
2023-04-04T10:49:06.595Z,23.62
2023-04-04T10:51:45.168Z,23.14
2023-04-04T10:54:13.722Z,23.66
2023-04-04T10:56:42.596Z,24.03
2023-04-04T10:59:13.264Z,23.57
2023-04-04T11:01:49.547Z,22.46
2023-04-04T11:04:21.252Z,22.84
2023-04-04T11:07:17.166Z,21.95
2023-04-04T11:09:52.378Z,22.64
2023-04-04T11:12:28.200Z,22.37
2023-04-04T11:14:58.098Z,23.60
2023-04-04T11:17:42.990Z,20.88
2023-04-04T11:20:11.648Z,23.06
2023-04-04T11:22:42.651Z,22.84
2023-04-04T11:25:36.095Z,21.59
2023-04-04T11:28:25.042Z,22.68
2023-04-04T11:31:27.561Z,22.92
2023-04-04T11:33:57.458Z,23.60
2023-04-04T11:36:25.786Z,23.69
2023-04-04T11:38:58.453Z,22.67
2023-04-04T11:41:45.006Z,21.45
2023-04-04T11:44:12.918Z,23.04
2023-04-04T11:46:42.274Z,22.57
2023-04-04T11:49:11.327Z,22.60
2023-04-04T11:51:40.802Z,22.83
2023-04-04T11:54:16.676Z,21.90
2023-04-04T11:56:45.393Z,23.26
2023-04-04T11:59:14.017Z,22.74
2023-04-04T12:01:42.391Z,22.90
2023-04-04T12:04:11.068Z,22.38
2023-04-04T12:06:39.465Z,22.76
2023-04-04T12:09:08.708Z,22.87
2023-04-04T12:11:38.467Z,22.11
2023-04-04T12:14:06.383Z,22.67
2023-04-04T12:16:34.272Z,22.29
2023-04-04T12:19:03.063Z,22.83
2023-04-04T12:21:33.145Z,22.14
2023-04-04T12:24:01.040Z,22.58
2023-04-04T12:26:30.121Z,22.53
2023-04-04T12:28:59.776Z,22.44
2023-04-04T12:31:28.709Z,23.41
2023-04-04T12:33:56.725Z,23.12
2023-04-04T12:36:26.663Z,22.98
2023-04-04T12:38:59.951Z,22.18
2023-04-04T12:41:27.975Z,22.74
2023-04-04T12:44:06.364Z,21.85
2023-04-04T12:46:39.689Z,22.71
2023-04-04T12:49:09.449Z,23.01
2023-04-04T12:51:38.718Z,22.68
2023-04-04T12:54:07.746Z,23.35
2023-04-04T12:56:37.036Z,23.33
2023-04-04T12:59:10.806Z,22.92
2023-04-04T13:01:39.139Z,22.92
2023-04-04T13:04:09.677Z,22.88
2023-04-04T13:06:38.462Z,22.95
2023-04-04T13:09:07.797Z,22.71
2023-04-04T13:12:09.745Z,21.58
2023-04-04T13:14:58.428Z,20.92
2023-04-04T13:17:26.452Z,22.75
2023-04-04T13:19:54.306Z,23.24
2023-04-04T13:22:22.223Z,22.93
2023-04-04T13:24:50.065Z,22.91
2023-04-04T13:27:17.947Z,22.23
2023-04-04T13:29:45.814Z,22.98
2023-04-04T13:32:15.035Z,23.18
2023-04-04T13:34:42.825Z,22.95
2023-04-04T13:37:10.672Z,22.25
2023-04-04T13:39:38.863Z,22.27
2023-04-04T13:42:06.845Z,22.25
2023-04-04T13:44:34.804Z,21.89
2023-04-04T13:47:03.351Z,22.47
2023-04-04T13:49:32.505Z,21.51
2023-04-04T13:52:00.444Z,21.05
2023-04-04T13:54:28.214Z,21.60
2023-04-04T13:56:57.370Z,21.70
2023-04-04T13:59:25.275Z,21.39
2023-04-04T14:01:53.257Z,21.36
2023-04-04T14:04:24.204Z,20.82
2023-04-04T14:06:53.674Z,20.78
2023-04-04T14:09:22.142Z,20.54
2023-04-04T14:11:49.982Z,21.17
2023-04-04T14:14:17.985Z,21.06
2023-04-04T14:16:45.851Z,20.96
2023-04-04T14:19:13.661Z,20.61
2023-04-04T14:21:41.579Z,20.45
2023-04-04T14:24:10.839Z,21.12
2023-04-04T14:26:38.724Z,21.13
2023-04-04T14:29:07.051Z,20.79
2023-04-04T14:31:35.061Z,20.83
2023-04-04T14:34:03.028Z,20.75
2023-04-04T14:36:31.642Z,20.75
2023-04-04T14:38:59.969Z,20.53
2023-04-04T14:41:29.431Z,21.01
2023-04-04T14:43:58.414Z,20.64
2023-04-04T14:46:26.364Z,20.63
2023-04-04T14:48:54.181Z,20.34
2023-04-04T14:51:22.213Z,20.63
2023-04-04T14:53:52.361Z,20.96
2023-04-04T14:56:23.206Z,21.12
2023-04-04T14:58:52.941Z,20.76
2023-04-04T15:01:21.864Z,21.23
2023-04-04T15:03:49.734Z,20.55
2023-04-04T15:06:17.572Z,21.12
2023-04-04T15:08:45.582Z,21.20
2023-04-04T15:11:13.912Z,20.55
2023-04-04T15:13:42.107Z,20.84
2023-04-04T15:16:11.442Z,20.20
2023-04-04T15:18:40.069Z,20.98
2023-04-04T15:21:07.976Z,20.75
2023-04-04T15:23:35.869Z,20.67
2023-04-04T15:26:03.816Z,20.89
2023-04-04T15:28:31.643Z,20.81
2023-04-04T15:31:02.026Z,20.40
2023-04-04T15:33:31.275Z,20.61
2023-04-04T15:35:59.056Z,20.94
2023-04-04T15:38:26.982Z,20.97
2023-04-04T15:40:54.819Z,21.39
2023-04-04T15:43:22.742Z,20.98
2023-04-04T15:45:50.880Z,21.48
2023-04-04T15:48:19.183Z,21.43
2023-04-04T15:50:48.757Z,21.11
2023-04-04T15:53:17.780Z,21.12
2023-04-04T15:55:45.593Z,20.81
2023-04-04T15:58:13.825Z,21.47
2023-04-04T16:00:47.272Z,21.09
2023-04-04T16:03:15.706Z,21.51
2023-04-04T16:05:43.696Z,21.15
2023-04-04T16:08:14.609Z,20.56
2023-04-04T16:10:44.055Z,20.88
2023-04-04T16:13:12.126Z,21.47
2023-04-04T16:15:40.159Z,20.94
2023-04-04T16:18:08.700Z,21.19
2023-04-04T16:20:37.111Z,21.75
2023-04-04T16:23:05.041Z,21.63
2023-04-04T16:25:34.309Z,21.15
2023-04-04T16:28:02.910Z,21.95
2023-04-04T16:30:32.051Z,21.98
2023-04-04T16:33:00.039Z,21.90
2023-04-04T16:35:28.059Z,21.92
2023-04-04T16:37:56.190Z,22.01
2023-04-04T16:40:24.040Z,21.76
2023-04-04T16:42:53.189Z,21.84
2023-04-04T16:45:21.671Z,22.25
2023-04-04T16:47:49.884Z,21.80
2023-04-04T16:50:17.988Z,22.20
2023-04-04T16:52:45.981Z,22.07
2023-04-04T16:55:13.962Z,21.95
2023-04-04T16:57:42.687Z,21.95
2023-04-04T17:00:14.000Z,22.47
2023-04-04T17:02:45.672Z,22.45
2023-04-04T17:05:14.403Z,22.19
2023-04-04T17:07:43.007Z,22.63
2023-04-04T17:10:12.027Z,22.20
2023-04-04T17:12:40.281Z,22.41
2023-04-04T17:15:09.326Z,22.69
2023-04-04T17:17:38.824Z,23.01
2023-04-04T17:20:07.781Z,23.12
2023-04-04T17:22:35.764Z,23.04
2023-04-04T17:25:03.836Z,23.11
2023-04-04T17:27:31.885Z,23.24
2023-04-04T17:29:59.724Z,22.84
2023-04-04T17:32:27.609Z,23.38
2023-04-04T17:34:56.899Z,23.07
2023-04-04T17:37:24.873Z,23.33
2023-04-04T17:39:52.810Z,23.09
2023-04-04T17:42:20.600Z,23.19
2023-04-04T17:44:48.549Z,23.06
2023-04-04T17:47:16.375Z,23.16
2023-04-04T17:49:44.752Z,23.70
2023-04-04T17:52:19.031Z,23.78
2023-04-04T17:54:47.921Z,23.71
2023-04-04T17:57:15.832Z,23.71
2023-04-04T17:59:44.129Z,23.77
2023-04-04T18:02:12.076Z,23.67
2023-04-04T18:04:40.119Z,23.23
2023-04-04T18:07:08.438Z,23.29
2023-04-04T18:09:37.789Z,23.32
2023-04-04T18:12:05.675Z,23.61
2023-04-04T18:14:33.702Z,23.53
2023-04-04T18:17:01.650Z,23.67
2023-04-04T18:19:30.330Z,23.29
2023-04-04T18:22:00.123Z,23.91
2023-04-04T18:24:28.432Z,23.65
2023-04-04T18:26:57.921Z,23.67
2023-04-04T18:29:26.839Z,23.92
2023-04-04T18:31:54.944Z,23.35
2023-04-04T18:34:22.984Z,23.44
2023-04-04T18:36:50.761Z,23.94
2023-04-04T18:39:18.730Z,23.68
2023-04-04T18:41:46.660Z,23.60
2023-04-04T18:44:15.972Z,23.69
2023-04-04T18:46:43.916Z,24.14
2023-04-04T18:49:11.756Z,23.94
2023-04-04T18:51:39.586Z,24.22
2023-04-04T18:54:07.701Z,24.02
2023-04-04T18:56:37.177Z,23.77
2023-04-04T18:59:06.492Z,24.34
2023-04-04T19:01:36.031Z,24.13
2023-04-04T19:04:04.766Z,24.21
2023-04-04T19:06:33.671Z,24.28
2023-04-04T19:09:04.453Z,24.31
2023-04-04T19:11:35.882Z,24.20
2023-04-04T19:14:03.938Z,24.02
2023-04-04T19:16:32.001Z,24.16
2023-04-04T19:19:01.410Z,24.33
2023-04-04T19:21:29.212Z,24.44
2023-04-04T19:23:57.019Z,24.13
2023-04-04T19:26:24.930Z,24.14
2023-04-04T19:28:53.016Z,24.30
2023-04-04T19:31:22.444Z,24.58
2023-04-04T19:33:51.509Z,24.79
2023-04-04T19:36:20.861Z,24.63
2023-04-04T19:38:49.517Z,24.73
2023-04-04T19:41:33.727Z,24.42
2023-04-04T19:44:01.736Z,24.74
2023-04-04T19:46:32.919Z,24.61
2023-04-04T19:49:01.863Z,24.94
2023-04-04T19:51:42.704Z,24.78
2023-04-04T19:54:16.108Z,25.09
2023-04-04T19:56:47.331Z,25.01
2023-04-04T19:59:52.499Z,24.91
2023-04-04T20:02:49.837Z,25.23
2023-04-04T20:05:56.826Z,25.20
2023-04-04T20:08:29.329Z,25.22
2023-04-04T20:10:57.864Z,25.58
2023-04-04T20:13:26.047Z,25.10
2023-04-04T20:16:01.339Z,25.51
2023-04-04T20:18:31.572Z,25.40
2023-04-04T20:21:02.201Z,25.13
2023-04-04T20:23:32.747Z,25.49
2023-04-04T20:26:07.513Z,25.46
2023-04-04T20:28:36.712Z,25.58
2023-04-04T20:31:09.416Z,25.43
2023-04-04T20:33:40.813Z,25.85
2023-04-04T20:36:11.753Z,25.70
2023-04-04T20:38:42.590Z,25.54
2023-04-04T20:41:17.052Z,25.60
2023-04-04T20:43:52.695Z,26.04
2023-04-04T20:46:21.902Z,26.01
2023-04-04T20:48:50.598Z,26.23
2023-04-04T20:51:27.252Z,26.33
2023-04-04T20:53:58.566Z,25.88
2023-04-04T20:56:55.240Z,26.12
2023-04-04T20:59:30.554Z,25.81
2023-04-04T21:02:12.526Z,25.98
2023-04-04T21:04:42.315Z,26.00
2023-04-04T21:07:10.395Z,25.78
2023-04-04T21:09:39.574Z,25.76
2023-04-04T21:12:07.828Z,26.26
2023-04-04T21:14:39.047Z,26.17
2023-04-04T21:17:07.753Z,26.03
2023-04-04T21:19:35.608Z,25.97
2023-04-04T21:22:04.822Z,26.36
2023-04-04T21:24:35.420Z,26.45
2023-04-04T21:27:07.463Z,26.16
2023-04-04T21:29:35.434Z,26.25
2023-04-04T21:32:03.900Z,26.39
2023-04-04T21:34:32.400Z,26.61
2023-04-04T21:37:03.287Z,26.12
2023-04-04T21:39:31.818Z,26.47
2023-04-04T21:42:01.355Z,26.14
2023-04-04T21:44:31.500Z,26.47
2023-04-04T21:46:59.356Z,26.72
2023-04-04T21:49:27.441Z,26.59
2023-04-04T21:51:55.276Z,26.46
2023-04-04T21:54:24.146Z,26.66
2023-04-04T21:56:51.943Z,26.66
2023-04-04T21:59:19.827Z,27.02
2023-04-04T22:01:49.399Z,27.18
2023-04-04T22:04:17.241Z,26.73
2023-04-04T22:06:45.321Z,26.72
2023-04-04T22:09:13.110Z,26.88
2023-04-04T22:11:45.184Z,27.12
2023-04-04T22:14:17.331Z,26.97
2023-04-04T22:16:45.601Z,27.19
2023-04-04T22:19:14.933Z,27.32
2023-04-04T22:21:47.024Z,27.38
2023-04-04T22:24:15.574Z,26.84
2023-04-04T22:26:45.586Z,26.80
2023-04-04T22:29:13.544Z,27.04
2023-04-04T22:31:41.329Z,26.93
2023-04-04T22:34:09.466Z,27.57
2023-04-04T22:36:39.369Z,27.25
2023-04-04T22:39:07.305Z,27.18
2023-04-04T22:41:35.112Z,27.54
2023-04-04T22:44:02.930Z,27.63
2023-04-04T22:46:31.405Z,27.68
2023-04-04T22:49:06.691Z,27.77
2023-04-04T22:51:43.073Z,27.86
2023-04-04T22:54:14.457Z,27.76
2023-04-04T22:56:42.512Z,27.88
2023-04-04T22:59:10.437Z,28.09
2023-04-04T23:01:38.416Z,27.74
2023-04-04T23:04:06.616Z,27.91
2023-04-04T23:06:35.772Z,27.95
2023-04-04T23:09:03.569Z,27.91
2023-04-04T23:11:32.833Z,27.80
2023-04-04T23:14:01.149Z,28.35
2023-04-04T23:16:29.171Z,28.16
2023-04-04T23:18:57.104Z,28.26
2023-04-04T23:21:25.133Z,28.44
2023-04-04T23:23:52.927Z,28.00
2023-04-04T23:26:20.780Z,28.20
2023-04-04T23:28:51.880Z,28.85
2023-04-04T23:31:20.412Z,28.43
2023-04-04T23:33:48.217Z,28.42
2023-04-04T23:36:16.506Z,28.39
2023-04-04T23:38:44.336Z,28.53
2023-04-04T23:41:12.684Z,28.79
2023-04-04T23:43:42.805Z,28.49
2023-04-04T23:46:14.570Z,28.98
2023-04-04T23:48:42.539Z,28.92
2023-04-04T23:51:10.933Z,28.52
2023-04-04T23:53:39.186Z,28.78
2023-04-04T23:56:07.695Z,28.99
2023-04-04T23:58:35.647Z,28.65
